Аэропорт: Кневичи. Владивосток

ICAO: UHWW

METAR:
2019/01/21 23:00
UHWW 212300Z 00000MPS 9999 NSC M21/M24 Q1015 R25L/0///70 NOSIG RMK QFE760
METAR:
2019/01/21 21:21
TAF UHWW 212000Z 2121/2221 VRB01MPS 4000 HZ NSC 
      BECMG 2122/2124 36003MPS 9999 NSW 
      BECMG 2201/2203 18003MPS BKN020 
      TEMPO 2206/2221 5000 -SHSN BKN015CB